Time;durP1;ratioP1;P1;durP2;ratioP2;P2;SDS_P1;SDS_P2;PMS_P1;PMS_P2;Temp;Humidity;BMP_temperature;BMP_pressure;BME280_temperature;BME280_humidity;BME280_pressure;Samples;Min_cycle;Max_cycle;Signal;HPM_P1;HPM_P2
2022/07/02 00:00:56;;;;;;;1.13;0.50;;;;;;;14.44;62.67;100991.31;5079862;28;20032;-74
2022/07/02 00:03:30;;;;;;;2.80;0.68;;;;;;;14.40;62.77;100989.41;5080238;28;20028;-74
2022/07/02 00:05:57;;;;;;;0.75;0.50;;;;;;;14.36;62.75;100986.44;5096388;28;20020;-74
2022/07/02 00:08:24;;;;;;;0.82;0.52;;;;;;;14.34;63.15;100997.06;5061844;28;20396;-75
2022/07/02 00:10:51;;;;;;;1.08;0.60;;;;;;;14.29;62.98;100983.19;5062434;28;20036;-74
2022/07/02 00:13:20;;;;;;;1.50;0.65;;;;;;;14.23;63.33;100981.63;5080570;28;20111;-75
2022/07/02 00:15:45;;;;;;;2.65;0.65;;;;;;;14.20;63.25;100976.66;5060144;28;20068;-74
2022/07/02 00:18:11;;;;;;;1.33;0.57;;;;;;;14.14;63.26;100975.09;5045073;28;20059;-74
2022/07/02 00:20:41;;;;;;;1.63;0.60;;;;;;;14.12;63.49;100988.53;5061741;28;20060;-74
2022/07/02 00:23:07;;;;;;;1.17;0.40;;;;;;;14.11;63.17;100989.69;5080053;28;20491;-74
2022/07/02 00:25:36;;;;;;;1.30;0.50;;;;;;;14.08;63.49;100977.97;5080116;28;20027;-74
2022/07/02 00:28:02;;;;;;;0.77;0.50;;;;;;;14.07;63.81;100979.13;5077160;28;20097;-74
2022/07/02 00:30:27;;;;;;;2.65;0.65;;;;;;;14.03;64.16;100977.25;5075237;28;20199;-74
2022/07/02 00:32:53;;;;;;;0.93;0.50;;;;;;;13.98;63.97;100971.75;5056460;28;20039;-74
2022/07/02 00:35:18;;;;;;;2.78;0.98;;;;;;;13.92;64.21;100962.63;5062118;28;20385;-74
2022/07/02 00:37:43;;;;;;;2.13;0.57;;;;;;;13.89;64.50;100960.44;5062662;28;20032;-74
2022/07/02 00:40:09;;;;;;;1.95;0.70;;;;;;;13.89;64.42;100965.22;5054176;28;20020;-74
2022/07/02 00:42:35;;;;;;;2.60;0.50;;;;;;;13.84;64.47;100966.94;5062905;28;20683;-74
2022/07/02 00:45:01;;;;;;;0.90;0.70;;;;;;;13.79;64.72;100961.47;5060268;28;20408;-74
2022/07/02 00:47:26;;;;;;;1.80;0.40;;;;;;;13.83;64.63;100961.69;5072468;28;20039;-75
2022/07/02 00:49:52;;;;;;;2.50;0.70;;;;;;;13.77;64.68;100960.09;5078819;28;20028;-74
2022/07/02 00:52:17;;;;;;;0.90;0.55;;;;;;;13.70;65.02;100952.09;5057252;28;20274;-74
2022/07/02 00:54:43;;;;;;;1.63;0.70;;;;;;;13.67;65.17;100954.69;5062865;28;20027;-74
2022/07/02 00:57:08;;;;;;;1.92;0.80;;;;;;;13.64;65.27;100962.53;5077017;28;20451;-74
2022/07/02 00:59:34;;;;;;;0.77;0.60;;;;;;;13.53;65.83;100958.25;5076400;28;20052;-75
2022/07/02 01:01:59;;;;;;;0.93;0.50;;;;;;;13.56;65.71;100952.06;5057845;28;20040;-75
2022/07/02 01:04:29;;;;;;;1.25;0.60;;;;;;;13.54;65.70;100951.53;5079378;28;20024;-75
2022/07/02 01:06:57;;;;;;;2.75;0.77;;;;;;;13.52;65.89;100953.81;5063329;28;20438;-75
2022/07/02 01:12:07;;;;;;;3.10;0.60;;;;;;;13.43;66.37;100957.56;5081584;28;20098;-74
2022/07/02 01:14:33;;;;;;;2.67;0.77;;;;;;;13.41;66.06;100957.88;5045760;28;20122;-74
2022/07/02 01:16:58;;;;;;;0.80;0.47;;;;;;;13.36;66.46;100955.16;5058820;28;20045;-74
2022/07/02 01:19:24;;;;;;;0.63;0.40;;;;;;;13.33;66.75;100952.97;5077629;28;20036;-74
2022/07/02 01:22:11;;;;;;;1.08;0.73;;;;;;;13.28;66.58;100951.09;5078943;28;20031;-74
2022/07/02 01:24:36;;;;;;;1.83;0.70;;;;;;;13.23;67.01;100950.31;5078654;28;20476;-74
2022/07/02 01:27:02;;;;;;;2.03;0.60;;;;;;;13.21;67.02;100952.59;5054649;28;20123;-74
2022/07/02 01:29:27;;;;;;;2.80;0.90;;;;;;;13.14;66.95;100948.19;5055792;28;20035;-74
2022/07/02 01:31:53;;;;;;;1.55;0.57;;;;;;;13.11;67.27;100948.78;5061639;28;20024;-74
2022/07/02 01:34:18;;;;;;;1.10;0.50;;;;;;;13.08;67.35;100952.19;5062157;28;20488;-74
2022/07/02 01:36:44;;;;;;;1.67;0.70;;;;;;;13.03;67.47;100943.88;5078644;28;20535;-74
2022/07/02 01:39:09;;;;;;;1.77;0.70;;;;;;;12.99;67.75;100945.63;5078574;28;20020;-75
2022/07/02 01:41:41;;;;;;;3.13;0.65;;;;;;;12.97;67.50;100937.56;5059114;28;20032;-74
2022/07/02 01:44:07;;;;;;;1.15;0.68;;;;;;;12.92;67.83;100939.56;5060122;28;20089;-74
2022/07/02 01:46:33;;;;;;;1.45;0.75;;;;;;;12.86;67.72;100940.78;5044735;28;20039;-74
2022/07/02 01:48:58;;;;;;;1.05;0.65;;;;;;;12.83;67.50;100942.22;5059429;28;20028;-75
2022/07/02 01:51:24;;;;;;;1.40;0.75;;;;;;;12.84;67.90;100948.59;5095237;28;20043;-75
2022/07/02 01:53:49;;;;;;;2.03;0.57;;;;;;;12.79;67.93;100949.53;5059283;28;20415;-74
2022/07/02 01:56:15;;;;;;;2.47;0.75;;;;;;;12.73;68.08;100943.19;5076250;28;20110;-74
2022/07/02 01:58:40;;;;;;;1.95;0.52;;;;;;;12.67;68.22;100947.13;5095122;28;20411;-74
2022/07/02 02:01:06;;;;;;;1.88;0.50;;;;;;;12.63;68.33;100946.09;5061423;28;20035;-74
2022/07/02 02:03:31;;;;;;;1.58;0.50;;;;;;;12.60;68.36;100943.91;5059939;28;20036;-75
2022/07/02 02:05:57;;;;;;;1.30;0.80;;;;;;;12.56;68.36;100942.81;5077131;28;20087;-74
2022/07/02 02:08:22;;;;;;;1.33;0.60;;;;;;;12.53;68.58;100937.84;5057949;28;20028;-74
2022/07/02 02:10:48;;;;;;;1.27;0.60;;;;;;;12.50;68.25;100949.56;5059295;28;20044;-74
2022/07/02 02:13:15;;;;;;;1.63;0.80;;;;;;;12.46;68.14;100952.13;5077821;28;20032;-74
2022/07/02 02:15:41;;;;;;;1.30;0.60;;;;;;;12.42;68.79;100947.44;5044260;28;20035;-74
2022/07/02 02:18:06;;;;;;;2.35;0.70;;;;;;;12.43;68.45;100946.34;5061050;28;20044;-74
2022/07/02 02:20:32;;;;;;;1.13;0.70;;;;;;;12.37;68.80;100944.72;5041241;28;20032;-74
2022/07/02 02:23:00;;;;;;;0.73;0.60;;;;;;;12.34;68.93;100954.50;5060892;28;20047;-74
2022/07/02 02:25:25;;;;;;;2.60;0.70;;;;;;;12.34;68.84;100950.88;5059703;28;20066;-74
2022/07/02 02:27:51;;;;;;;1.35;0.60;;;;;;;12.29;68.97;100949.00;5093228;28;20040;-74
2022/07/02 02:30:16;;;;;;;3.05;0.82;;;;;;;12.24;68.81;100957.41;5077323;28;20032;-75
2022/07/02 02:32:42;;;;;;;1.98;0.82;;;;;;;12.21;68.91;100950.47;5077502;28;20032;-75
2022/07/02 02:35:07;;;;;;;1.48;0.60;;;;;;;12.21;69.06;100953.25;5061501;28;20361;-75
2022/07/02 02:37:33;;;;;;;1.52;0.65;;;;;;;12.18;69.50;100964.97;5094495;28;20107;-74
2022/07/02 02:39:58;;;;;;;1.75;0.80;;;;;;;12.15;69.24;100960.00;5076268;28;20035;-74
2022/07/02 02:42:24;;;;;;;1.17;0.70;;;;;;;12.10;69.29;100956.44;5072535;28;20035;-74
2022/07/02 02:44:49;;;;;;;1.85;0.60;;;;;;;12.07;69.50;100946.72;5054962;28;20028;-74
2022/07/02 02:47:15;;;;;;;1.35;0.70;;;;;;;12.07;69.65;100955.06;5044516;28;20028;-74
2022/07/02 02:49:40;;;;;;;1.40;0.80;;;;;;;12.02;69.81;100955.09;5038346;28;20086;-74
2022/07/02 02:52:06;;;;;;;0.95;0.68;;;;;;;11.97;69.60;100947.63;5047392;28;20020;-74
2022/07/02 02:54:32;;;;;;;1.20;0.60;;;;;;;11.97;69.97;100946.78;5041630;28;20033;-74
2022/07/02 02:56:57;;;;;;;1.88;0.63;;;;;;;11.93;70.16;100951.31;5060841;28;20031;-74
2022/07/02 02:59:22;;;;;;;2.55;0.82;;;;;;;11.89;70.48;100944.66;5076477;28;20062;-74
2022/07/02 03:01:48;;;;;;;0.82;0.60;;;;;;;11.87;70.39;100941.31;5044048;28;20043;-74
2022/07/02 03:04:13;;;;;;;1.17;0.60;;;;;;;11.84;70.46;100943.56;5038484;28;20469;-74
2022/07/02 03:06:39;;;;;;;2.47;0.70;;;;;;;11.80;70.46;100941.63;5074242;28;20025;-74
2022/07/02 03:09:04;;;;;;;1.48;0.80;;;;;;;11.76;70.57;100946.13;5094250;28;20032;-74
2022/07/02 03:11:31;;;;;;;1.33;0.80;;;;;;;11.74;70.52;100940.84;5044148;28;20029;-74
2022/07/02 03:13:57;;;;;;;1.55;0.70;;;;;;;11.71;70.49;100948.94;5060525;28;20031;-74
2022/07/02 03:16:23;;;;;;;1.10;0.70;;;;;;;11.68;70.59;100943.97;5069065;28;20032;-74
2022/07/02 03:18:48;;;;;;;1.10;0.60;;;;;;;11.64;70.60;100943.72;5073947;28;20039;-74
2022/07/02 03:21:14;;;;;;;1.17;0.77;;;;;;;11.62;70.53;100938.44;5076423;28;20043;-74
2022/07/02 03:23:39;;;;;;;4.38;1.00;;;;;;;11.61;70.54;100944.28;5065681;28;20051;-74
2022/07/02 03:26:04;;;;;;;2.08;0.73;;;;;;;11.55;70.56;100937.09;5077330;28;20039;-74
2022/07/02 03:28:30;;;;;;;2.25;0.75;;;;;;;11.52;70.74;100946.88;5056606;28;20040;-74
2022/07/02 03:30:56;;;;;;;0.90;0.60;;;;;;;11.52;70.67;100943.25;5059685;28;20051;-75
2022/07/02 03:33:22;;;;;;;1.33;0.70;;;;;;;11.48;70.90;100944.94;5043787;28;20029;-74
2022/07/02 03:35:47;;;;;;;2.38;0.75;;;;;;;11.45;70.87;100939.97;5054197;28;20493;-74
2022/07/02 03:38:13;;;;;;;0.90;0.73;;;;;;;11.40;71.01;100940.84;5060180;28;20036;-75
2022/07/02 03:40:38;;;;;;;1.10;0.60;;;;;;;11.38;70.77;100937.50;5060663;28;20032;-74
2022/07/02 03:43:04;;;;;;;1.70;0.65;;;;;;;11.35;71.05;100938.09;5063643;28;20024;-74
2022/07/02 03:45:29;;;;;;;2.28;0.60;;;;;;;11.32;70.88;100936.72;5064089;28;20024;-75
2022/07/02 03:47:54;;;;;;;1.10;0.70;;;;;;;11.30;70.82;100933.41;5046985;28;20501;-75
2022/07/02 03:50:20;;;;;;;1.63;0.90;;;;;;;11.25;71.30;100933.41;5064264;28;20047;-75
2022/07/02 03:52:45;;;;;;;0.90;0.77;;;;;;;11.22;71.55;100936.78;5060355;28;20021;-74
2022/07/02 03:55:11;;;;;;;3.08;0.82;;;;;;;11.21;71.36;100935.13;5097430;28;20027;-75
2022/07/02 03:57:36;;;;;;;2.38;0.70;;;;;;;11.17;71.63;100926.53;5080302;28;20028;-75
2022/07/02 04:00:04;;;;;;;1.88;0.85;;;;;;;11.15;71.56;100925.16;5059520;28;20039;-75
2022/07/02 04:02:29;;;;;;;2.53;0.80;;;;;;;11.14;71.36;100923.50;5080068;28;20032;-75
2022/07/02 04:04:55;;;;;;;2.25;0.80;;;;;;;11.13;71.29;100928.22;5047323;28;20020;-75
2022/07/02 04:07:20;;;;;;;4.20;0.95;;;;;;;11.06;71.28;100933.28;5096966;28;20028;-75
2022/07/02 04:09:46;;;;;;;1.42;0.65;;;;;;;11.09;71.29;100931.88;5063544;28;20028;-75
2022/07/02 04:12:12;;;;;;;1.95;0.73;;;;;;;11.03;71.47;100933.00;5097174;28;20035;-75
2022/07/02 04:14:37;;;;;;;1.25;0.80;;;;;;;11.02;71.66;100932.19;5076445;28;20480;-75
2022/07/02 04:17:03;;;;;;;2.00;1.08;;;;;;;10.99;71.86;100927.19;5097541;28;20043;-75
2022/07/02 04:19:28;;;;;;;1.55;0.80;;;;;;;10.98;72.16;100927.47;5096990;28;20080;-75
2022/07/02 04:21:54;;;;;;;1.77;0.70;;;;;;;10.96;72.31;100925.81;5059883;28;20032;-75
2022/07/02 04:24:20;;;;;;;1.73;0.70;;;;;;;10.95;71.88;100926.13;5077190;28;20036;-75
2022/07/02 04:26:45;;;;;;;2.67;0.93;;;;;;;10.94;72.43;100925.28;5095572;28;20024;-75
2022/07/02 04:29:11;;;;;;;1.45;0.70;;;;;;;10.96;72.58;100925.00;5079997;28;20024;-75
2022/07/02 04:31:36;;;;;;;1.88;0.98;;;;;;;10.96;72.80;100925.00;5062268;28;20065;-75
2022/07/02 04:34:01;;;;;;;2.42;0.95;;;;;;;11.01;73.41;100932.50;5079754;28;20028;-74
2022/07/02 04:36:27;;;;;;;1.23;0.80;;;;;;;11.06;73.45;100935.22;5059837;28;20040;-74
2022/07/02 04:38:52;;;;;;;1.02;0.82;;;;;;;11.07;74.72;100934.13;5059207;28;20029;-74
2022/07/02 04:41:18;;;;;;;1.30;0.70;;;;;;;11.14;75.29;100935.47;5087645;28;20090;-75
2022/07/02 04:43:43;;;;;;;1.08;0.90;;;;;;;11.20;76.09;100944.59;5096447;28;20389;-75
2022/07/02 04:46:09;;;;;;;1.42;0.80;;;;;;;11.28;76.64;100934.78;5095997;28;20023;-74
2022/07/02 04:48:34;;;;;;;1.65;0.90;;;;;;;11.39;77.47;100936.38;5096346;28;20021;-75
2022/07/02 04:51:00;;;;;;;1.50;1.00;;;;;;;11.49;78.07;100941.06;5096171;28;20029;-75
2022/07/02 04:53:25;;;;;;;3.28;1.00;;;;;;;11.60;78.90;100934.28;5096223;28;20028;-75
2022/07/02 04:55:51;;;;;;;2.03;1.00;;;;;;;11.73;79.58;100935.56;5076162;28;20033;-75
2022/07/02 04:58:16;;;;;;;3.10;1.80;;;;;;;11.84;81.87;100929.63;5062709;28;20039;-75
2022/07/02 05:00:42;;;;;;;2.95;1.50;;;;;;;11.96;81.55;100936.78;5072032;28;20028;-75
2022/07/02 05:03:07;;;;;;;6.55;3.83;;;;;;;12.08;81.20;100935.25;5097189;28;20024;-75
2022/07/02 05:05:33;;;;;;;5.65;3.75;;;;;;;12.22;84.21;100932.63;5097353;28;20035;-75
2022/07/02 05:07:59;;;;;;;5.40;3.80;;;;;;;12.35;82.63;100936.66;5045739;28;20054;-75
2022/07/02 05:10:24;;;;;;;7.95;6.03;;;;;;;12.49;84.68;100931.22;5058700;28;20025;-75
2022/07/02 05:12:49;;;;;;;13.73;8.43;;;;;;;12.63;82.86;100937.72;5095103;28;20031;-75
2022/07/02 05:15:15;;;;;;;9.55;6.22;;;;;;;12.82;83.78;100931.38;5042037;28;20036;-75
2022/07/02 05:17:40;;;;;;;8.18;5.80;;;;;;;13.00;83.75;100932.50;5045099;28;20056;-75
2022/07/02 05:20:06;;;;;;;7.07;4.68;;;;;;;13.17;76.15;100925.28;5062136;28;20024;-75
2022/07/02 05:22:32;;;;;;;5.53;4.32;;;;;;;13.36;75.42;100932.84;5078857;28;20028;-75
2022/07/02 05:24:57;;;;;;;6.38;4.70;;;;;;;13.55;74.11;100925.28;5075629;28;20032;-75
2022/07/02 05:27:23;;;;;;;7.45;5.38;;;;;;;13.74;73.60;100930.03;5094153;28;20060;-75
2022/07/02 05:29:48;;;;;;;5.15;4.22;;;;;;;13.95;73.02;100933.28;5078768;28;21557;-75
2022/07/02 05:32:14;;;;;;;21.75;4.30;;;;;;;14.13;71.83;100928.78;5095446;28;20503;-75
2022/07/02 05:34:39;;;;;;;6.70;4.20;;;;;;;14.34;71.84;100929.19;5095377;28;20043;-75
2022/07/02 05:37:05;;;;;;;6.97;3.97;;;;;;;14.52;69.85;100915.16;5095431;28;20089;-75
2022/07/02 05:39:30;;;;;;;5.90;3.72;;;;;;;14.74;68.95;100917.22;5061012;28;20047;-75
2022/07/02 05:41:56;;;;;;;6.15;3.58;;;;;;;14.95;68.79;100919.56;5095424;28;20054;-75
2022/07/02 05:44:21;;;;;;;5.53;3.70;;;;;;;15.14;69.21;100917.44;5095245;28;20118;-75
2022/07/02 05:46:47;;;;;;;3.83;3.25;;;;;;;15.34;69.81;100923.72;5096403;28;20035;-75
2022/07/02 05:49:12;;;;;;;6.85;3.13;;;;;;;15.51;68.79;100917.44;5095224;28;20031;-75
2022/07/02 05:51:38;;;;;;;4.07;2.78;;;;;;;15.75;66.15;100917.16;5096252;28;20031;-75
2022/07/02 05:54:03;;;;;;;4.35;2.75;;;;;;;15.92;65.93;100922.84;5044079;28;20063;-75
2022/07/02 05:56:29;;;;;;;4.32;3.00;;;;;;;16.13;65.07;100911.94;5058604;28;20059;-76
2022/07/02 05:58:54;;;;;;;3.53;2.42;;;;;;;16.31;64.59;100919.28;5078347;28;20028;-75
2022/07/02 06:01:20;;;;;;;3.60;2.80;;;;;;;16.47;65.44;100927.25;5076814;28;20040;-75
2022/07/02 06:03:45;;;;;;;3.47;2.05;;;;;;;16.67;63.46;100923.88;5095779;28;20036;-75
2022/07/02 06:08:55;;;;;;;4.50;2.08;;;;;;;17.08;63.48;100925.47;5090321;28;20430;-75
2022/07/02 06:11:20;;;;;;;2.70;2.20;;;;;;;17.26;62.40;100929.13;5060734;28;20039;-76
2022/07/02 06:13:46;;;;;;;4.35;2.10;;;;;;;17.45;61.46;100934.41;5077946;28;20032;-76
2022/07/02 06:16:11;;;;;;;2.70;1.60;;;;;;;17.62;61.91;100928.78;5094628;28;20032;-75
2022/07/02 06:18:37;;;;;;;4.53;1.73;;;;;;;17.80;61.18;100934.41;5094970;28;20079;-76
2022/07/02 06:21:02;;;;;;;1.55;1.30;;;;;;;17.94;62.52;100940.69;5061391;28;20035;-75
2022/07/02 06:23:28;;;;;;;2.25;1.33;;;;;;;18.16;60.30;100933.19;5054261;28;20036;-75
2022/07/02 06:25:53;;;;;;;3.55;1.40;;;;;;;18.33;60.29;100932.28;5096062;28;20031;-75
2022/07/02 06:28:19;;;;;;;2.47;1.40;;;;;;;18.51;59.54;100937.53;5076115;28;20040;-75
2022/07/02 06:30:44;;;;;;;1.73;1.23;;;;;;;18.70;59.14;100933.47;5094796;28;20039;-76
2022/07/02 06:33:10;;;;;;;1.42;1.25;;;;;;;18.86;58.71;100934.56;5077561;28;20043;-76
2022/07/02 06:35:36;;;;;;;1.88;1.23;;;;;;;18.99;58.81;100932.66;5074915;28;20028;-76
2022/07/02 06:38:02;;;;;;;2.65;1.30;;;;;;;19.17;58.27;100925.75;5075761;28;20025;-75
2022/07/02 06:40:27;;;;;;;2.05;1.13;;;;;;;19.34;57.79;100924.81;5060516;28;20546;-74
2022/07/02 06:42:53;;;;;;;2.10;1.40;;;;;;;19.49;57.75;100925.34;5086833;28;20031;-74
2022/07/02 06:45:19;;;;;;;3.80;1.60;;;;;;;19.60;59.66;100923.75;5059677;28;20032;-74
2022/07/02 06:47:45;;;;;;;3.63;1.38;;;;;;;19.79;57.19;100926.09;5052317;28;20080;-75
2022/07/02 06:50:11;;;;;;;3.97;1.73;;;;;;;19.97;57.09;100929.56;5074922;28;20032;-74
2022/07/02 06:52:36;;;;;;;3.75;1.20;;;;;;;20.12;57.10;100928.09;5077641;28;20025;-75
2022/07/02 06:55:02;;;;;;;5.68;1.27;;;;;;;20.29;56.73;100925.88;5059807;28;20059;-74
2022/07/02 06:57:28;;;;;;;1.40;1.05;;;;;;;20.46;56.42;100936.13;5094452;28;20032;-75
2022/07/02 06:59:53;;;;;;;2.22;1.00;;;;;;;20.58;56.73;100935.34;5095722;28;20028;-74
2022/07/02 07:02:19;;;;;;;3.22;1.13;;;;;;;20.71;56.38;100936.19;5057501;28;20033;-75
2022/07/02 07:04:45;;;;;;;2.80;1.00;;;;;;;20.84;55.95;100929.38;5077538;28;20111;-76
2022/07/02 07:07:11;;;;;;;3.95;1.20;;;;;;;21.03;55.62;100931.56;5094227;28;20047;-76
2022/07/02 07:09:36;;;;;;;3.00;0.73;;;;;;;21.16;55.09;100930.38;5059914;28;20029;-75
2022/07/02 07:12:06;;;;;;;8.00;1.20;;;;;;;21.29;54.72;100927.53;5060414;28;20036;-73
2022/07/02 07:14:32;;;;;;;2.67;0.93;;;;;;;21.48;54.78;100930.56;5055547;28;20024;-73
2022/07/02 07:16:58;;;;;;;3.47;1.00;;;;;;;21.58;54.58;100929.22;5097083;28;20066;-73
2022/07/02 07:19:23;;;;;;;1.48;0.80;;;;;;;21.72;53.92;100929.63;5099331;28;20062;-73
2022/07/02 07:21:49;;;;;;;1.33;0.50;;;;;;;21.94;53.54;100933.91;5078375;28;20515;-73
2022/07/02 07:24:14;;;;;;;3.90;0.80;;;;;;;22.07;53.31;100935.47;5098256;28;20082;-73
2022/07/02 07:26:40;;;;;;;2.90;1.02;;;;;;;22.26;52.98;100939.66;5063503;28;20070;-73
2022/07/02 07:29:06;;;;;;;3.85;0.80;;;;;;;22.36;52.43;100941.13;5064462;28;20035;-74
2022/07/02 07:31:32;;;;;;;3.92;0.85;;;;;;;22.59;51.98;100941.28;5080883;28;20028;-76
2022/07/02 07:33:58;;;;;;;2.25;0.80;;;;;;;22.72;51.65;100937.19;5064243;28;20028;-75
2022/07/02 07:36:24;;;;;;;1.90;0.82;;;;;;;22.84;51.51;100939.09;5079426;28;20503;-74
2022/07/02 07:38:49;;;;;;;2.63;0.80;;;;;;;22.99;50.69;100940.31;5080084;28;20036;-73
2022/07/02 07:41:15;;;;;;;4.75;0.60;;;;;;;23.09;50.71;100934.03;5064096;28;20058;-73
2022/07/02 07:43:41;;;;;;;2.65;0.60;;;;;;;23.24;51.00;100935.22;5060685;28;20028;-72
2022/07/02 07:46:06;;;;;;;2.08;0.63;;;;;;;23.37;50.31;100934.72;5076926;28;20439;-74
2022/07/02 07:48:32;;;;;;;3.13;0.50;;;;;;;23.45;48.97;100932.03;5061695;28;20025;-74
2022/07/02 07:50:58;;;;;;;2.72;0.43;;;;;;;23.57;49.43;100932.72;5064070;28;20039;-74
2022/07/02 07:53:24;;;;;;;1.08;0.50;;;;;;;23.70;49.64;100935.38;5076979;28;20035;-73
2022/07/02 07:55:49;;;;;;;1.95;0.60;;;;;;;23.78;49.21;100931.53;5063950;28;20032;-72
2022/07/02 07:58:15;;;;;;;2.50;0.52;;;;;;;23.90;48.87;100931.38;5080469;28;20384;-72
2022/07/02 08:00:41;;;;;;;1.42;0.50;;;;;;;24.08;48.32;100934.56;5043983;28;20107;-73
2022/07/02 08:03:06;;;;;;;3.97;0.70;;;;;;;24.22;48.16;100934.81;5077756;28;20052;-73
2022/07/02 08:05:31;;;;;;;1.60;0.50;;;;;;;24.33;47.55;100934.22;5076470;28;20072;-72
2022/07/02 08:07:57;;;;;;;3.72;0.60;;;;;;;24.38;45.72;100925.38;5079295;28;20025;-72
2022/07/02 08:10:22;;;;;;;2.95;0.60;;;;;;;24.46;46.93;100927.16;5096999;28;20028;-72
2022/07/02 08:12:49;;;;;;;2.42;0.40;;;;;;;24.59;45.92;100931.44;5080365;28;20032;-72
2022/07/02 08:15:15;;;;;;;3.08;0.50;;;;;;;24.73;45.96;100931.69;5076400;28;20036;-73
2022/07/02 08:17:40;;;;;;;1.70;0.47;;;;;;;24.86;46.14;100925.81;5068983;28;20043;-73
2022/07/02 08:20:07;;;;;;;2.88;0.60;;;;;;;25.07;45.97;100922.47;5079980;28;20089;-73
2022/07/02 08:22:34;;;;;;;2.05;0.40;;;;;;;25.10;44.63;100919.69;5080246;28;20039;-73
2022/07/02 08:24:59;;;;;;;2.22;0.60;;;;;;;25.15;45.29;100925.06;5063407;28;20044;-72
2022/07/02 08:27:25;;;;;;;2.25;0.50;;;;;;;25.27;42.96;100923.19;5061603;28;20047;-73
2022/07/02 08:29:51;;;;;;;1.40;0.50;;;;;;;25.32;44.04;100917.16;5079890;28;20020;-72
2022/07/02 08:32:17;;;;;;;4.10;0.70;;;;;;;25.49;44.28;100927.13;5077200;28;20115;-72
2022/07/02 08:34:42;;;;;;;1.30;0.40;;;;;;;25.59;43.72;100921.59;5063191;28;20031;-72
2022/07/02 08:37:08;;;;;;;2.30;0.30;;;;;;;25.70;43.85;100920.91;5062971;28;20024;-72
2022/07/02 08:39:33;;;;;;;1.55;0.50;;;;;;;25.77;44.08;100915.31;5075045;28;20040;-72
2022/07/02 08:41:59;;;;;;;2.30;0.55;;;;;;;25.91;43.33;100924.06;5058317;28;20081;-73
2022/07/02 08:44:25;;;;;;;2.28;0.40;;;;;;;26.05;43.28;100921.38;5059680;28;20054;-72
2022/07/02 08:46:50;;;;;;;1.23;0.35;;;;;;;26.11;41.81;100923.88;5062668;28;20035;-71
2022/07/02 08:49:19;;;;;;;2.03;0.40;;;;;;;26.24;41.99;100916.66;5079597;28;20031;-72
2022/07/02 08:52:03;;;;;;;1.42;0.32;;;;;;;26.34;42.33;100912.28;5073978;28;20029;-72
2022/07/02 08:54:33;;;;;;;2.83;0.47;;;;;;;26.38;41.26;100907.44;5062685;28;20032;-72
2022/07/02 08:57:00;;;;;;;0.95;0.30;;;;;;;26.44;41.32;100909.53;5063225;28;20063;-72
2022/07/02 08:59:25;;;;;;;2.97;0.45;;;;;;;26.50;40.21;100905.16;5079509;28;20032;-72
2022/07/02 09:01:52;;;;;;;1.25;0.25;;;;;;;26.58;41.11;100903.19;5060217;28;20020;-72
2022/07/02 09:04:18;;;;;;;2.35;0.45;;;;;;;26.63;39.78;100904.81;5062492;28;20020;-72
2022/07/02 09:06:44;;;;;;;2.22;0.30;;;;;;;26.67;39.64;100906.50;5055564;28;20024;-72
2022/07/02 09:09:09;;;;;;;1.23;0.30;;;;;;;26.67;40.24;100905.69;5061010;28;20081;-72
2022/07/02 09:11:35;;;;;;;1.13;0.30;;;;;;;26.73;40.09;100904.91;5062423;28;20024;-72
2022/07/02 09:14:01;;;;;;;1.73;0.50;;;;;;;26.75;39.03;100904.53;5078879;28;20107;-72
2022/07/02 09:16:26;;;;;;;2.30;0.40;;;;;;;26.83;40.25;100900.53;5044292;28;20047;-72
2022/07/02 09:18:52;;;;;;;3.50;0.30;;;;;;;26.89;40.12;100900.97;5078966;28;20444;-72
2022/07/02 09:21:17;;;;;;;0.93;0.40;;;;;;;27.05;40.60;100906.34;5060780;28;20384;-73
2022/07/02 09:23:47;;;;;;;2.17;0.32;;;;;;;27.17;40.01;100898.31;5079053;28;20027;-73
2022/07/02 09:26:23;;;;;;;1.70;0.50;;;;;;;27.29;39.59;100897.16;5045573;28;20035;-72
2022/07/02 09:28:59;;;;;;;1.27;0.20;;;;;;;27.39;39.50;100899.25;5078602;28;20043;-73
2022/07/02 09:31:26;;;;;;;1.52;0.30;;;;;;;27.50;39.01;100889.94;5078800;28;20484;-73
2022/07/02 09:33:51;;;;;;;1.60;0.20;;;;;;;27.70;39.90;100896.13;5094636;28;20027;-72
2022/07/02 09:36:17;;;;;;;1.77;0.40;;;;;;;27.84;38.42;100879.88;5078069;28;20097;-73
2022/07/02 09:38:47;;;;;;;2.40;0.50;;;;;;;28.03;38.36;100883.63;5073526;28;20092;-73
2022/07/02 09:41:14;;;;;;;1.95;0.30;;;;;;;28.16;38.77;100881.97;5071671;28;20027;-73
2022/07/02 09:43:40;;;;;;;1.55;0.30;;;;;;;28.28;37.76;100875.88;5061096;28;20036;-73
2022/07/02 09:46:19;;;;;;;1.23;0.30;;;;;;;28.37;36.41;100875.47;5095140;28;20031;-72
2022/07/02 09:48:45;;;;;;;0.77;0.32;;;;;;;28.51;36.51;100877.56;5078505;28;20426;-73
2022/07/02 09:51:10;;;;;;;2.22;0.40;;;;;;;28.60;36.95;100880.00;5060835;28;20047;-73
2022/07/02 09:53:53;;;;;;;0.90;0.28;;;;;;;28.74;35.75;100869.34;5044882;28;20036;-72
2022/07/02 09:56:23;;;;;;;2.65;0.43;;;;;;;28.85;35.37;100877.91;5062366;28;20387;-73
2022/07/02 09:58:49;;;;;;;3.13;0.30;;;;;;;28.92;35.91;100866.47;5075327;28;20036;-72
2022/07/02 10:01:19;;;;;;;1.23;0.20;;;;;;;29.05;34.84;100874.66;5061628;28;20436;-72
2022/07/02 10:03:49;;;;;;;2.42;0.25;;;;;;;29.11;34.66;100870.97;5052581;28;20081;-72
2022/07/02 10:06:14;;;;;;;1.98;0.40;;;;;;;29.15;35.02;100871.75;5072060;28;20052;-72
2022/07/02 10:08:41;;;;;;;1.50;0.20;;;;;;;29.25;34.95;100866.41;5078133;28;20059;-72
2022/07/02 10:11:06;;;;;;;2.92;0.30;;;;;;;29.34;34.20;100858.22;5077412;28;20039;-72
2022/07/02 10:13:32;;;;;;;1.23;0.20;;;;;;;29.43;32.83;100852.06;5058149;28;20562;-73
2022/07/02 10:16:00;;;;;;;1.70;0.45;;;;;;;29.51;33.67;100857.31;5069044;28;20110;-72
2022/07/02 10:18:25;;;;;;;1.23;0.30;;;;;;;29.51;33.62;100854.47;5060952;28;20505;-73
2022/07/02 10:20:52;;;;;;;1.05;0.30;;;;;;;29.62;33.44;100848.69;5061182;28;20043;-73
2022/07/02 10:23:17;;;;;;;1.88;0.30;;;;;;;29.59;31.93;100847.47;5060056;28;20028;-73
2022/07/02 10:25:43;;;;;;;1.38;0.28;;;;;;;29.77;32.72;100849.44;5077883;28;20028;-73
2022/07/02 10:28:08;;;;;;;2.50;0.40;;;;;;;29.80;32.92;100842.88;5076552;28;20079;-73
2022/07/02 10:30:34;;;;;;;4.53;0.50;;;;;;;29.89;32.29;100843.22;5061184;28;20054;-74
2022/07/02 10:33:10;;;;;;;0.93;0.20;;;;;;;30.01;33.56;100847.66;5076416;28;20395;-74
2022/07/02 10:35:36;;;;;;;1.15;0.25;;;;;;;29.99;33.32;100850.94;5094665;28;20514;-74
2022/07/02 10:38:02;;;;;;;1.52;0.30;;;;;;;30.12;32.50;100844.72;5077279;28;20024;-74
2022/07/02 10:40:27;;;;;;;2.15;0.30;;;;;;;30.12;32.84;100839.81;5061248;28;20039;-75
2022/07/02 10:42:53;;;;;;;3.03;0.47;;;;;;;30.14;33.06;100845.09;5077784;28;20024;-74
2022/07/02 10:45:20;;;;;;;3.75;0.60;;;;;;;30.22;32.73;100838.13;5040231;28;20469;-74
2022/07/02 10:48:02;;;;;;;1.27;0.40;;;;;;;30.08;33.28;100833.28;5059288;28;20028;-76
2022/07/02 10:50:41;;;;;;;1.33;0.30;;;;;;;29.88;34.58;100844.47;5058695;28;20406;-75
2022/07/02 10:53:17;;;;;;;1.95;0.20;;;;;;;29.62;33.97;100829.47;5093814;28;20032;-75
2022/07/02 10:55:44;;;;;;;2.85;0.43;;;;;;;29.47;33.89;100833.63;5053982;28;20024;-75
2022/07/02 10:58:20;;;;;;;2.08;0.43;;;;;;;29.16;34.86;100841.91;5079565;28;20029;-75
2022/07/02 11:00:46;;;;;;;2.25;0.30;;;;;;;29.01;35.31;100833.78;5065320;28;20042;-75
2022/07/02 11:03:20;;;;;;;3.17;0.45;;;;;;;28.82;34.15;100833.00;5078235;28;20032;-75
2022/07/02 11:05:56;;;;;;;1.20;0.50;;;;;;;28.81;35.93;100845.69;5094274;28;20384;-75
2022/07/02 11:08:43;;;;;;;0.98;0.45;;;;;;;28.69;35.32;100846.91;5099613;28;20075;-75
2022/07/02 11:11:10;;;;;;;2.17;0.40;;;;;;;28.79;34.31;100841.59;5095252;28;20040;-75
2022/07/02 11:13:42;;;;;;;3.42;0.60;;;;;;;28.82;35.95;100838.72;5081201;28;20036;-75
2022/07/02 11:16:25;;;;;;;1.90;0.40;;;;;;;28.86;35.29;100838.72;5078277;28;20556;-75
2022/07/02 11:18:51;;;;;;;2.03;0.50;;;;;;;28.91;35.55;100836.25;5079226;28;20040;-75
2022/07/02 11:21:17;;;;;;;2.35;0.40;;;;;;;28.88;34.91;100828.50;5098140;28;20423;-75
2022/07/02 11:23:43;;;;;;;1.02;0.30;;;;;;;28.98;35.09;100826.06;5061416;28;20115;-76
2022/07/02 11:26:08;;;;;;;1.65;0.30;;;;;;;29.09;35.68;100830.53;5078826;28;20032;-75